Toboyne, Pennsylvania
Current Conditions -  °F | °C
As of 5:53 AM on Wednesday 26 Nov 2014 (Local Time) from KRYT Reporting Station
Light Rain Light Rain  
Wind Chill: 40°   Ceiling: 2600
Heat Index: 40°   Visibility: 7mi
Dew Point: 32°   Wind: 0mph
Humidity: 73%   Direction: NA
Pressure: 30.07"   Gusts: NA
Location:  40.2719°N, 77.5899°W
Report Text: KRYT 261053Z AUTO 00000KT 7SM -RA OVC026 04/00 A3007 RMK AO2 SLP193 P0002 T00440000 $
Loading
Personal Weather Stations






























Interactive Weather Map New forecast layout! Learn more

10-Day Weather Forecast

Advertisements
Track Severe Weather on mobile